createdAt,value
2022-11-28T00:01:24.262Z,10.20
2022-11-28T00:03:50.935Z,10.40
2022-11-28T00:06:18.184Z,11.47
2022-11-28T00:08:45.708Z,11.90
2022-11-28T00:11:15.141Z,11.47
2022-11-28T00:13:42.431Z,11.17
2022-11-28T00:16:13.040Z,10.80
2022-11-28T00:18:39.686Z,11.13
2022-11-28T00:21:09.519Z,11.47
2022-11-28T00:23:36.443Z,12.17
2022-11-28T00:26:09.103Z,8.73
2022-11-28T00:28:35.861Z,9.70
2022-11-28T00:31:02.377Z,10.30
2022-11-28T00:33:30.384Z,8.60
2022-11-28T00:36:01.843Z,8.73
2022-11-28T00:38:29.192Z,9.47
2022-11-28T00:41:03.540Z,8.87
2022-11-28T00:43:30.252Z,10.40
2022-11-28T00:45:57.302Z,8.97
2022-11-28T00:48:24.777Z,12.30
2022-11-28T00:50:52.098Z,9.00
2022-11-28T00:53:19.172Z,9.07
2022-11-28T00:55:45.751Z,8.70
2022-11-28T00:58:12.362Z,9.13
2022-11-28T01:00:39.427Z,9.03
2022-11-28T01:03:06.433Z,11.17
2022-11-28T01:05:33.225Z,10.30
2022-11-28T01:07:59.837Z,11.40
2022-11-28T01:10:27.222Z,11.40
2022-11-28T01:12:53.921Z,11.80
2022-11-28T01:15:20.500Z,9.17
2022-11-28T01:17:47.126Z,10.47
2022-11-28T01:20:14.127Z,14.60
2022-11-28T01:22:40.693Z,13.17
2022-11-28T01:25:07.513Z,11.53
2022-11-28T01:27:34.053Z,12.03
2022-11-28T01:30:00.609Z,14.77
2022-11-28T01:32:27.224Z,9.93
2022-11-28T01:34:53.788Z,9.73
2022-11-28T01:37:20.396Z,12.40
2022-11-28T01:39:47.075Z,11.13
2022-11-28T01:42:18.061Z,16.73
2022-11-28T01:44:47.752Z,11.57
2022-11-28T01:47:17.992Z,10.80
2022-11-28T01:49:47.270Z,13.87
2022-11-28T01:52:17.462Z,13.20
2022-11-28T01:54:48.344Z,10.87
2022-11-28T01:57:24.188Z,12.67
2022-11-28T02:00:13.818Z,11.97
2022-11-28T02:02:45.695Z,12.50
2022-11-28T02:05:13.291Z,14.20
2022-11-28T02:07:40.364Z,11.97
2022-11-28T02:10:10.685Z,10.60
2022-11-28T02:12:43.406Z,13.13
2022-11-28T02:15:42.084Z,11.83
2022-11-28T02:18:21.127Z,12.33
2022-11-28T02:21:18.360Z,10.57
2022-11-28T02:24:03.210Z,11.80
2022-11-28T02:26:51.523Z,10.23
2022-11-28T02:29:26.463Z,13.20
2022-11-28T02:32:24.254Z,10.70
2022-11-28T02:34:51.009Z,10.87
2022-11-28T02:37:25.604Z,11.47
2022-11-28T02:40:07.700Z,13.87
2022-11-28T02:42:47.389Z,13.00
2022-11-28T02:45:24.130Z,13.57
2022-11-28T02:47:59.207Z,11.60
2022-11-28T02:50:33.039Z,12.07
2022-11-28T02:53:06.301Z,15.47
2022-11-28T02:55:33.413Z,12.67
2022-11-28T02:58:00.764Z,14.37
2022-11-28T03:00:30.082Z,14.20
2022-11-28T03:03:21.342Z,15.70
2022-11-28T03:06:27.433Z,15.40
2022-11-28T03:09:06.043Z,17.30
2022-11-28T03:11:58.540Z,17.37
2022-11-28T03:14:46.802Z,12.13
2022-11-28T03:17:57.060Z,12.83
2022-11-28T03:20:23.594Z,14.00
2022-11-28T03:23:11.794Z,14.00
2022-11-28T03:26:09.664Z,13.97
2022-11-28T03:28:54.230Z,15.23
2022-11-28T03:31:58.544Z,15.23
2022-11-28T03:34:31.427Z,12.97
2022-11-28T03:37:04.375Z,13.20
2022-11-28T03:39:37.068Z,14.37
2022-11-28T03:42:10.694Z,12.97
2022-11-28T03:44:48.033Z,15.20
2022-11-28T03:47:15.004Z,16.63
2022-11-28T03:49:50.870Z,14.97
2022-11-28T03:52:28.100Z,11.10
2022-11-28T03:55:23.675Z,19.53
2022-11-28T03:58:13.550Z,17.50
2022-11-28T04:00:56.635Z,17.90
2022-11-28T04:03:51.838Z,15.17
2022-11-28T04:06:25.175Z,14.50
2022-11-28T04:09:14.687Z,18.17
2022-11-28T04:11:56.473Z,20.73
2022-11-28T04:14:49.085Z,19.93
2022-11-28T04:17:28.917Z,20.37
2022-11-28T04:20:05.681Z,15.57
2022-11-28T04:22:43.597Z,13.87
2022-11-28T04:25:15.881Z,18.07
2022-11-28T04:27:48.582Z,19.17
2022-11-28T04:30:15.994Z,16.43
2022-11-28T04:32:48.061Z,15.87
2022-11-28T04:35:23.596Z,21.00
2022-11-28T04:37:52.375Z,16.73
2022-11-28T04:40:23.384Z,18.50
2022-11-28T04:42:55.872Z,15.13
2022-11-28T04:45:37.181Z,16.97
2022-11-28T04:48:04.634Z,17.57
2022-11-28T04:50:43.614Z,18.23
2022-11-28T04:53:19.757Z,23.67
2022-11-28T04:55:58.453Z,14.63
2022-11-28T04:58:33.961Z,20.80
2022-11-28T05:01:05.070Z,17.63
2022-11-28T05:03:32.038Z,14.70
2022-11-28T05:05:58.624Z,15.20
2022-11-28T05:08:25.423Z,21.77
2022-11-28T05:10:52.077Z,21.10
2022-11-28T05:13:18.613Z,18.47
2022-11-28T05:15:45.160Z,20.20
2022-11-28T05:18:11.801Z,18.80
2022-11-28T05:20:39.490Z,14.73
2022-11-28T05:23:06.561Z,18.27
2022-11-28T05:25:33.311Z,15.57
2022-11-28T05:27:59.956Z,16.77
2022-11-28T05:30:26.489Z,15.20
2022-11-28T05:32:53.031Z,12.50
2022-11-28T05:35:19.582Z,14.27
2022-11-28T05:37:46.213Z,13.60
2022-11-28T05:40:12.997Z,15.17
2022-11-28T05:42:39.668Z,13.60
2022-11-28T05:45:06.687Z,15.70
2022-11-28T05:47:33.814Z,23.60
2022-11-28T05:50:00.449Z,15.50
2022-11-28T05:52:29.629Z,16.50
2022-11-28T05:54:56.201Z,14.57
2022-11-28T05:57:22.764Z,16.03
2022-11-28T05:59:49.394Z,15.70
2022-11-28T06:02:15.980Z,17.40
2022-11-28T06:04:42.853Z,16.10
2022-11-28T06:07:09.426Z,14.30
2022-11-28T06:09:36.110Z,16.70
2022-11-28T06:12:03.144Z,16.17
2022-11-28T06:14:29.892Z,18.37
2022-11-28T06:16:56.858Z,16.00
2022-11-28T06:19:23.561Z,16.17
2022-11-28T06:21:51.010Z,18.47
2022-11-28T06:24:17.881Z,16.33
2022-11-28T06:26:44.658Z,16.10
2022-11-28T06:29:11.482Z,19.87
2022-11-28T06:31:38.128Z,17.40
2022-11-28T06:34:04.808Z,13.83
2022-11-28T06:36:31.399Z,23.17
2022-11-28T06:38:58.002Z,16.17
2022-11-28T06:41:24.577Z,22.73
2022-11-28T06:43:51.435Z,20.00
2022-11-28T06:46:20.734Z,19.03
2022-11-28T06:48:49.493Z,15.97
2022-11-28T06:51:17.324Z,13.20
2022-11-28T06:53:44.650Z,18.53
2022-11-28T06:56:17.542Z,17.00
2022-11-28T06:58:45.285Z,13.80
2022-11-28T07:01:18.100Z,12.90
2022-11-28T07:03:45.423Z,18.17
2022-11-28T07:06:13.417Z,15.10
2022-11-28T07:08:40.723Z,16.67
2022-11-28T07:11:19.360Z,15.17
2022-11-28T07:13:47.156Z,13.20
2022-11-28T07:16:17.061Z,15.20
2022-11-28T07:18:44.750Z,18.40
2022-11-28T07:21:12.414Z,15.50
2022-11-28T07:23:38.973Z,16.33
2022-11-28T07:26:06.355Z,15.60
2022-11-28T07:28:34.494Z,15.37
2022-11-28T07:31:13.514Z,14.70
2022-11-28T07:33:42.871Z,13.20
2022-11-28T07:36:14.170Z,15.13
2022-11-28T07:38:40.735Z,14.37
2022-11-28T07:41:10.568Z,13.20
2022-11-28T07:43:38.140Z,14.00
2022-11-28T07:46:07.267Z,11.57
2022-11-28T07:48:35.097Z,18.43
2022-11-28T07:51:07.573Z,21.40
2022-11-28T07:53:39.771Z,20.40
2022-11-28T07:56:11.051Z,13.70
2022-11-28T07:58:38.975Z,15.97
2022-11-28T08:01:10.665Z,15.10
2022-11-28T08:03:37.255Z,12.47
2022-11-28T08:06:05.748Z,14.73
2022-11-28T08:08:33.146Z,13.97
2022-11-28T08:11:01.817Z,12.50
2022-11-28T08:13:28.770Z,12.97
2022-11-28T08:15:55.812Z,12.67
2022-11-28T08:18:22.766Z,14.30
2022-11-28T08:20:50.417Z,12.13
2022-11-28T08:23:16.970Z,14.00
2022-11-28T08:25:43.496Z,15.47
2022-11-28T08:28:10.023Z,11.83
2022-11-28T08:30:36.630Z,15.03
2022-11-28T08:33:03.308Z,11.13
2022-11-28T08:35:30.043Z,12.80
2022-11-28T08:38:01.447Z,11.77
2022-11-28T08:40:28.757Z,11.30
2022-11-28T08:42:55.753Z,11.27
2022-11-28T08:45:22.497Z,24.47
2022-11-28T08:47:49.079Z,16.97
2022-11-28T08:50:15.819Z,15.03
2022-11-28T08:52:42.337Z,16.23
2022-11-28T08:55:09.403Z,13.97
2022-11-28T08:57:35.884Z,12.60
2022-11-28T09:00:03.084Z,15.67
2022-11-28T09:02:29.587Z,15.27
2022-11-28T09:04:56.126Z,13.03
2022-11-28T09:07:22.714Z,15.90
2022-11-28T09:09:49.385Z,12.77
2022-11-28T09:12:16.752Z,12.90
2022-11-28T09:14:43.288Z,14.93
2022-11-28T09:17:10.128Z,12.30
2022-11-28T09:19:36.728Z,15.97
2022-11-28T09:22:03.332Z,13.57
2022-11-28T09:24:29.878Z,13.00
2022-11-28T09:26:56.798Z,21.70
2022-11-28T09:29:23.420Z,15.43
2022-11-28T09:31:50.021Z,13.47
2022-11-28T09:34:16.735Z,12.87
2022-11-28T09:36:43.250Z,13.67
2022-11-28T09:39:09.784Z,14.10
2022-11-28T09:41:49.799Z,13.60
2022-11-28T09:44:42.102Z,16.53
2022-11-28T09:47:36.888Z,14.07
2022-11-28T09:50:10.579Z,10.40
2022-11-28T09:52:49.190Z,12.53
2022-11-28T09:55:24.933Z,14.33
2022-11-28T09:57:52.501Z,13.90
2022-11-28T10:00:31.629Z,13.10
2022-11-28T10:03:09.312Z,12.17
2022-11-28T10:05:56.962Z,11.37
2022-11-28T10:09:12.326Z,12.47
2022-11-28T10:12:03.075Z,11.33
2022-11-28T10:14:43.567Z,15.13
2022-11-28T10:17:24.982Z,13.20
2022-11-28T10:19:57.299Z,19.23
2022-11-28T10:22:48.533Z,14.03
2022-11-28T10:25:31.527Z,13.63
2022-11-28T10:27:58.082Z,13.10
2022-11-28T10:30:34.180Z,12.87
2022-11-28T10:33:09.564Z,11.97
2022-11-28T10:35:44.361Z,13.87
2022-11-28T10:38:15.567Z,14.50
2022-11-28T10:40:53.286Z,11.93
2022-11-28T10:43:32.010Z,11.17
2022-11-28T10:46:35.687Z,11.30
2022-11-28T10:49:22.943Z,10.80
2022-11-28T10:52:23.126Z,10.70
2022-11-28T10:55:08.553Z,13.00
2022-11-28T10:58:00.881Z,11.53
2022-11-28T11:00:27.407Z,12.10
2022-11-28T11:02:56.049Z,11.50
2022-11-28T11:05:29.614Z,14.17
2022-11-28T11:08:16.720Z,10.77
2022-11-28T11:10:51.908Z,14.03
2022-11-28T11:13:25.169Z,13.20
2022-11-28T11:16:02.778Z,11.53
2022-11-28T11:18:36.525Z,10.90
2022-11-28T11:21:19.818Z,12.60
2022-11-28T11:23:48.177Z,13.87
2022-11-28T11:26:25.383Z,11.70
2022-11-28T11:28:52.564Z,11.00
2022-11-28T11:31:27.379Z,11.23
2022-11-28T11:34:01.806Z,9.97
2022-11-28T11:36:31.721Z,17.53
2022-11-28T11:39:13.354Z,11.13
2022-11-28T11:41:45.367Z,10.20
2022-11-28T11:44:14.718Z,13.47
2022-11-28T11:46:55.449Z,12.93
2022-11-28T11:49:32.588Z,12.20
2022-11-28T11:52:05.251Z,13.17
2022-11-28T11:54:31.857Z,10.50
2022-11-28T11:57:17.948Z,11.60
2022-11-28T11:59:53.549Z,10.23
2022-11-28T12:02:37.988Z,13.00
2022-11-28T12:05:11.525Z,13.87
2022-11-28T12:07:56.554Z,12.30
2022-11-28T12:10:27.252Z,11.67
2022-11-28T12:12:54.010Z,11.53
2022-11-28T12:15:40.230Z,12.73
2022-11-28T12:18:12.855Z,13.37
2022-11-28T12:21:04.590Z,15.40
2022-11-28T12:23:40.198Z,12.00
2022-11-28T12:26:20.794Z,12.13
2022-11-28T12:29:01.635Z,14.10
2022-11-28T12:31:38.326Z,12.80
2022-11-28T12:34:23.226Z,14.00
2022-11-28T12:37:20.940Z,13.10
2022-11-28T12:40:06.222Z,15.20
2022-11-28T12:43:10.058Z,12.60
2022-11-28T12:45:47.173Z,10.00
2022-11-28T12:48:31.659Z,12.60
2022-11-28T12:51:24.891Z,11.20
2022-11-28T12:54:03.736Z,13.53
2022-11-28T12:56:56.095Z,20.20
2022-11-28T12:59:32.670Z,15.37
2022-11-28T13:02:10.165Z,14.53
2022-11-28T13:04:57.615Z,16.90
2022-11-28T13:07:26.927Z,11.30
2022-11-28T13:10:05.475Z,16.30
2022-11-28T13:12:58.201Z,11.30
2022-11-28T13:15:41.074Z,11.70
2022-11-28T13:18:25.751Z,9.67
2022-11-28T13:21:14.164Z,9.93
2022-11-28T13:23:47.020Z,9.70
2022-11-28T13:26:13.657Z,10.37
2022-11-28T13:28:46.328Z,10.47
2022-11-28T13:31:33.828Z,13.80
2022-11-28T13:34:00.911Z,12.13
2022-11-28T13:39:50.835Z,9.80
2022-11-28T13:45:32.838Z,11.50
2022-11-28T13:48:00.700Z,9.20
2022-11-28T13:50:30.355Z,9.87
2022-11-28T13:53:06.036Z,13.17
2022-11-28T13:55:47.192Z,10.17
2022-11-28T13:58:18.653Z,11.47
2022-11-28T14:01:08.726Z,8.87
2022-11-28T14:04:07.659Z,8.10
2022-11-28T14:06:59.125Z,13.40
2022-11-28T14:10:03.843Z,8.50
2022-11-28T14:12:45.325Z,8.47
2022-11-28T14:15:45.788Z,7.87
2022-11-28T14:18:58.330Z,9.43
2022-11-28T14:21:32.736Z,10.93
2022-11-28T14:24:11.150Z,7.13
2022-11-28T14:26:42.791Z,8.67
2022-11-28T14:29:27.520Z,7.90
2022-11-28T14:32:27.823Z,13.40
2022-11-28T14:34:47.360Z,11.03
2022-11-28T14:37:27.071Z,7.60
2022-11-28T14:39:55.576Z,9.87
2022-11-28T14:42:58.403Z,10.13
2022-11-28T14:45:33.456Z,7.63
2022-11-28T14:48:31.997Z,8.87
2022-11-28T14:51:02.149Z,8.70
2022-11-28T14:53:44.468Z,9.73
2022-11-28T14:56:28.042Z,8.03
2022-11-28T14:59:02.253Z,7.50
2022-11-28T15:01:37.874Z,13.13
2022-11-28T15:04:44.295Z,9.87
2022-11-28T15:07:49.922Z,6.07
2022-11-28T15:11:08.685Z,12.80
2022-11-28T15:13:47.481Z,10.23
2022-11-28T15:16:18.646Z,9.10
2022-11-28T15:18:55.777Z,8.20
2022-11-28T15:21:22.952Z,7.27
2022-11-28T15:23:52.611Z,11.53
2022-11-28T15:26:20.868Z,15.73
2022-11-28T15:28:47.491Z,10.17
2022-11-28T15:31:22.874Z,11.03
2022-11-28T15:33:50.896Z,7.80
2022-11-28T15:36:27.440Z,10.40
2022-11-28T15:38:56.073Z,8.10
2022-11-28T15:41:25.319Z,7.60
2022-11-28T15:43:54.082Z,7.97
2022-11-28T15:46:32.575Z,8.17
2022-11-28T15:49:01.510Z,6.70
2022-11-28T15:51:32.626Z,6.67
2022-11-28T15:54:00.716Z,12.53
2022-11-28T15:56:27.312Z,7.77
2022-11-28T15:58:54.093Z,8.73
2022-11-28T16:01:22.443Z,7.67
2022-11-28T16:04:10.442Z,7.30
2022-11-28T16:06:41.263Z,8.90
2022-11-28T16:09:19.986Z,7.10
2022-11-28T16:11:49.494Z,8.00
2022-11-28T16:14:28.867Z,10.80
2022-11-28T16:17:01.351Z,10.93
2022-11-28T16:19:31.936Z,9.13
2022-11-28T16:22:02.066Z,9.80
2022-11-28T16:24:42.299Z,8.23
2022-11-28T16:27:30.175Z,8.40
2022-11-28T16:29:57.085Z,10.30
2022-11-28T16:32:39.983Z,9.50
2022-11-28T16:35:12.471Z,7.20
2022-11-28T16:37:39.368Z,7.70
2022-11-28T16:40:13.891Z,8.83
2022-11-28T16:42:40.722Z,9.43
2022-11-28T16:45:17.326Z,9.50
2022-11-28T16:47:45.592Z,8.77
2022-11-28T16:50:24.214Z,10.57
2022-11-28T16:52:52.767Z,9.20
2022-11-28T16:55:32.265Z,9.50
2022-11-28T16:58:11.449Z,9.43
2022-11-28T17:00:40.557Z,8.23
2022-11-28T17:03:11.665Z,9.00
2022-11-28T17:05:39.702Z,8.47
2022-11-28T17:08:08.200Z,6.73
2022-11-28T17:10:34.768Z,6.90
2022-11-28T17:13:01.387Z,6.20
2022-11-28T17:15:27.968Z,6.03
2022-11-28T17:17:55.752Z,7.30
2022-11-28T17:20:22.333Z,7.83
2022-11-28T17:22:50.999Z,6.97
2022-11-28T17:25:20.164Z,7.27
2022-11-28T17:27:50.615Z,7.00
2022-11-28T17:30:19.456Z,7.03
2022-11-28T17:32:51.857Z,7.73
2022-11-28T17:35:22.062Z,7.77
2022-11-28T17:37:48.786Z,6.80
2022-11-28T17:40:33.849Z,7.40
2022-11-28T17:43:01.392Z,8.90
2022-11-28T17:45:31.554Z,8.30
2022-11-28T17:47:58.618Z,6.77
2022-11-28T17:50:25.294Z,7.90
2022-11-28T17:52:52.258Z,6.97
2022-11-28T17:55:20.667Z,10.40
2022-11-28T17:57:47.575Z,8.03
2022-11-28T18:00:15.139Z,8.20
2022-11-28T18:02:43.256Z,9.20
2022-11-28T18:05:09.868Z,12.57
2022-11-28T18:07:38.339Z,9.83
2022-11-28T18:10:05.620Z,9.90
2022-11-28T18:12:32.447Z,9.57
2022-11-28T18:15:00.854Z,11.60
2022-11-28T18:17:28.242Z,7.93
2022-11-28T18:19:57.667Z,11.13
2022-11-28T18:22:24.911Z,12.20
2022-11-28T18:24:52.298Z,17.00
2022-11-28T18:27:18.815Z,16.53
2022-11-28T18:29:45.892Z,17.40
2022-11-28T18:32:12.841Z,14.90
2022-11-28T18:34:39.708Z,16.10
2022-11-28T18:37:06.358Z,11.40
2022-11-28T18:39:33.237Z,11.27
2022-11-28T18:42:00.112Z,10.00
2022-11-28T18:44:27.984Z,12.53
2022-11-28T18:46:54.694Z,10.03
2022-11-28T18:49:21.406Z,11.00
2022-11-28T18:51:48.480Z,8.83
2022-11-28T18:54:20.528Z,9.97
2022-11-28T18:56:48.350Z,8.47
2022-11-28T18:59:14.928Z,9.73
2022-11-28T19:01:41.589Z,9.60
2022-11-28T19:04:11.479Z,9.53
2022-11-28T19:06:40.217Z,9.10
2022-11-28T19:09:10.844Z,9.20
2022-11-28T19:11:37.903Z,8.80
2022-11-28T19:14:06.626Z,10.07
2022-11-28T19:16:35.923Z,10.23
2022-11-28T19:19:04.462Z,10.70
2022-11-28T19:21:34.304Z,11.57
2022-11-28T19:24:03.094Z,12.63
2022-11-28T19:26:31.438Z,10.90
2022-11-28T19:29:00.924Z,11.80
2022-11-28T19:31:30.183Z,11.30
2022-11-28T19:34:03.093Z,12.83
2022-11-28T19:36:33.489Z,10.00
2022-11-28T19:39:00.854Z,14.03
2022-11-28T19:41:28.284Z,10.20
2022-11-28T19:43:55.854Z,9.80
2022-11-28T19:46:23.401Z,12.33
2022-11-28T19:48:51.675Z,9.90
2022-11-28T19:51:19.815Z,11.33
2022-11-28T19:53:46.908Z,9.57
2022-11-28T19:56:16.801Z,13.40
2022-11-28T19:58:44.661Z,12.13
2022-11-28T20:01:15.431Z,13.43
2022-11-28T20:03:43.164Z,12.83
2022-11-28T20:06:13.377Z,10.53
2022-11-28T20:08:40.949Z,11.50
2022-11-28T20:11:19.443Z,10.40
2022-11-28T20:13:47.012Z,11.47
2022-11-28T20:16:15.635Z,12.37
2022-11-28T20:18:44.525Z,12.10
2022-11-28T20:21:19.866Z,11.47
2022-11-28T20:23:49.372Z,11.43
2022-11-28T20:26:18.532Z,9.60
2022-11-28T20:28:46.016Z,9.00
2022-11-28T20:31:19.446Z,10.87
2022-11-28T20:33:47.600Z,11.90
2022-11-28T20:36:18.483Z,9.60
2022-11-28T20:38:46.504Z,11.77
2022-11-28T20:41:15.256Z,8.13
2022-11-28T20:43:42.493Z,8.73
2022-11-28T20:46:15.047Z,12.10
2022-11-28T20:48:42.197Z,10.10
2022-11-28T20:51:14.619Z,10.20
2022-11-28T20:53:49.009Z,11.10
2022-11-28T20:56:27.013Z,11.17
2022-11-28T20:58:54.579Z,10.97
2022-11-28T21:01:25.739Z,10.87
2022-11-28T21:03:53.973Z,13.50
2022-11-28T21:06:22.224Z,8.93
2022-11-28T21:09:36.681Z,9.90
2022-11-28T21:12:04.239Z,10.10
2022-11-28T21:14:32.523Z,10.27
2022-11-28T21:17:10.711Z,10.27
2022-11-28T21:19:38.439Z,7.97
2022-11-28T21:22:06.470Z,12.87
2022-11-28T21:24:38.036Z,8.57
2022-11-28T21:27:05.165Z,11.17
2022-11-28T21:29:34.720Z,12.07
2022-11-28T21:32:02.457Z,16.13
2022-11-28T21:34:30.000Z,10.67
2022-11-28T21:36:57.132Z,12.73
2022-11-28T21:39:26.757Z,11.57
2022-11-28T21:41:57.028Z,10.13
2022-11-28T21:44:24.095Z,9.60
2022-11-28T21:46:51.029Z,8.63
2022-11-28T21:49:17.990Z,10.10
2022-11-28T21:51:45.188Z,12.57
2022-11-28T21:54:12.746Z,9.63
2022-11-28T21:56:40.113Z,9.40
2022-11-28T21:59:07.480Z,8.20
2022-11-28T22:01:34.576Z,9.30
2022-11-28T22:04:06.801Z,9.27
2022-11-28T22:06:39.034Z,11.53
2022-11-28T22:09:09.425Z,14.50
2022-11-28T22:11:39.746Z,8.10
2022-11-28T22:17:02.550Z,8.83
2022-11-28T22:19:31.970Z,11.67
2022-11-28T22:22:15.309Z,11.20
2022-11-28T22:24:45.730Z,9.67
2022-11-28T22:27:15.907Z,12.93
2022-11-28T22:29:43.151Z,10.20
2022-11-28T22:32:10.349Z,11.67
2022-11-28T22:34:40.222Z,11.70
2022-11-28T22:37:07.605Z,8.57
2022-11-28T22:39:34.338Z,8.83
2022-11-28T22:42:01.412Z,9.73
2022-11-28T22:44:28.564Z,9.77
2022-11-28T22:46:55.374Z,9.20
2022-11-28T22:49:22.645Z,10.40
2022-11-28T22:51:50.045Z,8.70
2022-11-28T22:54:17.537Z,11.17
2022-11-28T22:56:44.193Z,11.67
2022-11-28T22:59:16.592Z,7.67
2022-11-28T23:01:43.887Z,10.90
2022-11-28T23:04:11.288Z,11.17
2022-11-28T23:06:38.082Z,7.60
2022-11-28T23:09:07.611Z,8.73
2022-11-28T23:11:38.138Z,9.90
2022-11-28T23:14:05.463Z,12.70
2022-11-28T23:16:36.004Z,11.20
2022-11-28T23:19:06.590Z,9.97
2022-11-28T23:21:36.712Z,8.80
2022-11-28T23:24:06.942Z,8.70
2022-11-28T23:26:34.447Z,10.67
2022-11-28T23:29:08.298Z,11.70
2022-11-28T23:31:39.783Z,9.00
2022-11-28T23:34:16.334Z,11.20
2022-11-28T23:36:46.491Z,11.30
2022-11-28T23:39:21.607Z,13.50
2022-11-28T23:41:51.438Z,9.63
2022-11-28T23:44:19.845Z,11.00
2022-11-28T23:46:51.627Z,10.00
2022-11-28T23:49:21.105Z,15.67
2022-11-28T23:51:50.242Z,8.93
2022-11-28T23:54:22.295Z,12.90
2022-11-28T23:56:58.740Z,10.43
2022-11-28T23:59:25.478Z,12.10
